Time;durP1;ratioP1;P1;durP2;ratioP2;P2;SDS_P1;SDS_P2;PMS_P1;PMS_P2;Temp;Humidity;BMP_temperature;BMP_pressure;BME280_temperature;BME280_humidity;BME280_pressure;Samples;Min_cycle;Max_cycle;Signal;HPM_P1;HPM_P2
2021/04/19 00:01:49;;;;;;;37.88;27.40;;;;;;;-145.19;100.00;59999.88;5033078;28;20041;-68
2021/04/19 00:04:16;;;;;;;38.70;28.57;;;;;;;-145.19;100.00;59999.88;5028733;28;20505;-68
2021/04/19 00:06:42;;;;;;;36.33;26.63;;;;;;;-145.19;100.00;59999.88;5023561;28;20049;-68
2021/04/19 00:09:09;;;;;;;40.22;28.27;;;;;;;-145.19;100.00;59999.88;5030128;28;20049;-68
2021/04/19 00:11:36;;;;;;;39.28;26.95;;;;;;;-145.19;100.00;59999.88;5028611;28;20056;-68
2021/04/19 00:14:04;;;;;;;36.38;27.17;;;;;;;-145.19;100.00;59999.88;5029635;28;20053;-68
2021/04/19 00:16:30;;;;;;;35.53;28.52;;;;;;;-145.19;100.00;59999.88;5029027;28;20049;-68
2021/04/19 00:18:56;;;;;;;37.10;27.50;;;;;;;-145.19;100.00;59999.88;5030666;28;20052;-68
2021/04/19 00:21:23;;;;;;;35.70;26.75;;;;;;;-145.19;100.00;59999.88;5029621;28;20042;-68
2021/04/19 00:23:49;;;;;;;38.70;28.50;;;;;;;-145.19;100.00;59999.88;5020827;28;20033;-68
2021/04/19 00:26:15;;;;;;;35.88;27.00;;;;;;;-145.19;100.00;59999.88;5028625;28;20049;-68
2021/04/19 00:28:41;;;;;;;36.58;26.83;;;;;;;-145.19;100.00;59999.88;5026966;28;20501;-68
2021/04/19 00:31:08;;;;;;;37.65;28.40;;;;;;;-145.19;100.00;59999.88;5029370;28;20045;-68
2021/04/19 00:33:34;;;;;;;37.03;27.02;;;;;;;-145.19;100.00;59999.88;5030511;28;20045;-68
2021/04/19 00:36:00;;;;;;;38.10;26.80;;;;;;;-145.19;100.00;59999.88;5029182;28;20096;-68
2021/04/19 00:38:27;;;;;;;37.75;27.40;;;;;;;-145.19;100.00;59999.88;5030391;28;20083;-68
2021/04/19 00:40:54;;;;;;;39.38;26.63;;;;;;;-145.19;100.00;59999.88;5026436;28;20517;-69
2021/04/19 00:43:21;;;;;;;38.72;28.88;;;;;;;-145.19;100.00;59999.88;5030502;28;20409;-67
2021/04/19 00:45:50;;;;;;;38.13;27.40;;;;;;;-145.19;100.00;59999.88;5027989;28;20053;-69
2021/04/19 00:48:18;;;;;;;38.67;27.35;;;;;;;-145.19;100.00;59999.88;5028301;28;20055;-68
2021/04/19 00:50:45;;;;;;;39.08;28.10;;;;;;;-145.19;100.00;59999.88;5029705;28;20120;-68
2021/04/19 00:53:14;;;;;;;37.22;27.15;;;;;;;-145.19;100.00;59999.88;5027959;28;20041;-68
2021/04/19 00:55:40;;;;;;;38.75;27.00;;;;;;;-145.19;100.00;59999.88;5026643;28;20536;-68
2021/04/19 00:58:06;;;;;;;34.03;25.42;;;;;;;-145.19;100.00;59999.88;5030950;28;20137;-68
2021/04/19 01:00:35;;;;;;;40.10;28.25;;;;;;;-145.19;100.00;59999.88;5028318;28;20118;-67
2021/04/19 01:03:02;;;;;;;36.88;27.00;;;;;;;-145.19;100.00;59999.88;5030149;28;20071;-68
2021/04/19 01:05:35;;;;;;;38.80;26.02;;;;;;;-145.19;100.00;59999.88;5027992;28;20050;-68
2021/04/19 01:08:03;;;;;;;39.80;26.95;;;;;;;-145.19;100.00;59999.88;5026071;28;20137;-68
2021/04/19 01:10:29;;;;;;;39.33;27.80;;;;;;;-145.19;100.00;59999.88;5031000;28;20057;-68
2021/04/19 01:12:56;;;;;;;39.90;28.80;;;;;;;-145.19;100.00;59999.88;5032239;28;20041;-68
2021/04/19 01:15:22;;;;;;;42.88;29.67;;;;;;;-145.19;100.00;59999.88;5030352;28;20528;-68
2021/04/19 01:17:50;;;;;;;;;;;;;;;-145.19;100.00;59999.88;5030979;28;20049;-68
2021/04/19 01:20:20;;;;;;;39.95;27.02;;;;;;;-145.19;100.00;59999.88;5029169;28;20008;-68
2021/04/19 01:22:46;;;;;;;39.03;28.73;;;;;;;-145.19;100.00;59999.88;5033177;28;20050;-68
2021/04/19 01:25:17;;;;;;;40.13;26.73;;;;;;;-145.19;100.00;59999.88;5028319;28;20053;-67
2021/04/19 01:27:47;;;;;;;37.97;27.40;;;;;;;-145.19;100.00;59999.88;5031101;28;20083;-68
2021/04/19 01:30:15;;;;;;;38.15;27.75;;;;;;;-145.19;100.00;59999.88;5031698;28;20468;-68
2021/04/19 01:32:42;;;;;;;;;;;;;;;-145.19;100.00;59999.88;5030050;28;20037;-68
2021/04/19 01:35:10;;;;;;;43.00;27.27;;;;;;;-145.19;100.00;59999.88;5029855;28;19947;-68
2021/04/19 01:37:38;;;;;;;36.33;26.60;;;;;;;-145.19;100.00;59999.88;5013248;28;20580;-68
2021/04/19 01:40:07;;;;;;;39.25;28.13;;;;;;;-145.19;100.00;59999.88;5029259;28;20390;-68
2021/04/19 01:42:33;;;;;;;38.25;27.90;;;;;;;-145.19;100.00;59999.88;5026995;28;20111;-68
2021/04/19 01:45:00;;;;;;;37.33;25.73;;;;;;;-145.19;100.00;59999.88;5023326;28;20068;-68
2021/04/19 01:47:28;;;;;;;38.30;27.80;;;;;;;-145.19;100.00;59999.88;5023918;28;20056;-68
2021/04/19 01:49:55;;;;;;;38.00;27.45;;;;;;;-145.19;100.00;59999.88;5043670;28;20046;-68
2021/04/19 01:52:21;;;;;;;40.08;28.00;;;;;;;-145.19;100.00;59999.88;5029985;28;20053;-68
2021/04/19 01:54:48;;;;;;;38.03;27.75;;;;;;;-145.19;100.00;59999.88;5018363;28;20038;-68
2021/04/19 01:57:15;;;;;;;40.17;26.58;;;;;;;-145.19;100.00;59999.88;5027278;28;20125;-68
2021/04/19 01:59:43;;;;;;;;;;;;;;;-145.19;100.00;59999.88;5037019;28;20053;-68
2021/04/19 02:02:20;;;;;;;40.65;27.67;;;;;;;-145.19;100.00;59999.88;5028202;28;19921;-68
2021/04/19 02:04:55;;;;;;;39.78;27.65;;;;;;;-145.19;100.00;59999.88;5028218;28;20117;-68
2021/04/19 02:07:37;;;;;;;42.35;28.83;;;;;;;-145.19;100.00;59999.88;5030270;28;20076;-68
2021/04/19 02:10:06;;;;;;;44.95;29.83;;;;;;;-145.19;100.00;59999.88;5031252;28;20045;-68
2021/04/19 02:12:41;;;;;;;41.05;29.40;;;;;;;-145.19;100.00;59999.88;5032744;28;20118;-68
2021/04/19 02:15:40;;;;;;;39.67;27.52;;;;;;;-145.19;100.00;59999.88;5029137;28;20064;-68
2021/04/19 02:18:28;;;;;;;41.72;28.23;;;;;;;-145.19;100.00;59999.88;5030200;28;20081;-68
2021/04/19 02:21:07;;;;;;;41.50;28.98;;;;;;;-145.19;100.00;59999.88;5040510;28;20053;-68
2021/04/19 02:23:39;;;;;;;41.30;28.77;;;;;;;-145.19;100.00;59999.88;5033114;28;20042;-68
2021/04/19 02:26:20;;;;;;;50.70;30.80;;;;;;;-145.19;100.00;59999.88;5023224;28;20053;-68
2021/04/19 02:28:52;;;;;;;39.80;28.27;;;;;;;-145.19;100.00;59999.88;5033113;28;20049;-68
2021/04/19 02:31:21;;;;;;;41.65;28.35;;;;;;;-145.19;100.00;59999.88;5035884;28;20057;-68
2021/04/19 02:33:53;;;;;;;44.63;28.75;;;;;;;-145.19;100.00;59999.88;5029780;28;20034;-69
2021/04/19 02:36:21;;;;;;;43.05;29.52;;;;;;;-145.19;100.00;59999.88;5030929;28;20099;-68
2021/04/19 02:38:52;;;;;;;42.75;29.95;;;;;;;-145.19;100.00;59999.88;5021687;28;20045;-67
2021/04/19 02:41:21;;;;;;;39.85;27.65;;;;;;;-145.19;100.00;59999.88;5031966;28;20041;-68
2021/04/19 02:43:50;;;;;;;42.20;28.55;;;;;;;-145.19;100.00;59999.88;5032360;28;20045;-68
2021/04/19 02:46:32;;;;;;;42.35;29.73;;;;;;;-145.19;100.00;59999.88;5028944;28;20041;-68
2021/04/19 02:49:00;;;;;;;41.20;29.77;;;;;;;-145.19;100.00;59999.88;5031378;28;20053;-68
2021/04/19 02:51:28;;;;;;;39.15;28.55;;;;;;;-145.19;100.00;59999.88;5032162;28;20081;-68
2021/04/19 02:53:55;;;;;;;43.03;30.27;;;;;;;-145.19;100.00;59999.88;5032167;28;20482;-68
2021/04/19 02:56:21;;;;;;;45.57;31.17;;;;;;;-145.19;100.00;59999.88;5026867;28;20482;-68
2021/04/19 02:58:55;;;;;;;41.83;29.80;;;;;;;-145.19;100.00;59999.88;5050318;28;20513;-68
2021/04/19 03:01:32;;;;;;;41.55;29.65;;;;;;;-145.19;100.00;59999.88;5029317;28;20084;-68
2021/04/19 03:04:08;;;;;;;43.38;30.23;;;;;;;-145.19;100.00;59999.88;5029968;28;20045;-68
2021/04/19 03:06:43;;;;;;;46.58;30.27;;;;;;;-145.19;100.00;59999.88;5033063;28;20795;-68
2021/04/19 03:09:16;;;;;;;43.55;31.38;;;;;;;-145.19;100.00;59999.88;5044829;28;20060;-68
2021/04/19 03:11:51;;;;;;;42.72;31.15;;;;;;;-145.19;100.00;59999.88;5034052;28;20120;-68
2021/04/19 03:14:19;;;;;;;44.17;30.15;;;;;;;-145.19;100.00;59999.88;5049018;28;20074;-68
2021/04/19 03:17:12;;;;;;;45.10;30.20;;;;;;;-145.19;100.00;59999.88;5020676;28;20037;-68
2021/04/19 03:20:04;;;;;;;42.65;28.23;;;;;;;-145.19;100.00;59999.88;5033521;28;20060;-68
2021/04/19 03:22:42;;;;;;;46.47;29.55;;;;;;;-145.19;100.00;59999.88;5030804;28;20059;-68
2021/04/19 03:25:10;;;;;;;43.45;30.08;;;;;;;-145.19;100.00;59999.88;5038903;28;20136;-68
2021/04/19 03:27:40;;;;;;;45.70;28.85;;;;;;;-145.19;100.00;59999.88;5025480;28;20046;-68
2021/04/19 03:30:10;;;;;;;43.58;29.85;;;;;;;-145.19;100.00;59999.88;5034583;28;20661;-68
2021/04/19 03:32:53;;;;;;;44.97;31.25;;;;;;;-145.19;100.00;59999.88;5029190;28;20052;-68
2021/04/19 03:35:26;;;;;;;45.22;30.40;;;;;;;-145.19;100.00;59999.88;5045426;28;20421;-68
2021/04/19 03:37:55;;;;;;;45.40;29.63;;;;;;;-145.19;100.00;59999.88;5031403;28;20045;-68
2021/04/19 03:40:27;;;;;;;39.97;28.13;;;;;;;-145.19;100.00;59999.88;5030737;28;20472;-68
2021/04/19 03:42:58;;;;;;;45.55;31.08;;;;;;;-145.19;100.00;59999.88;5032182;28;20040;-68
2021/04/19 03:45:32;;;;;;;45.50;30.85;;;;;;;-145.19;100.00;59999.88;5046441;28;20045;-68
2021/04/19 03:48:21;;;;;;;45.15;30.45;;;;;;;-145.19;100.00;59999.88;5030486;28;20494;-68
2021/04/19 03:50:57;;;;;;;46.45;30.30;;;;;;;-145.19;100.00;59999.88;5028785;28;20077;-68
2021/04/19 03:53:26;;;;;;;46.80;29.63;;;;;;;-145.19;100.00;59999.88;5030877;28;20076;-68
2021/04/19 03:55:55;;;;;;;45.58;31.25;;;;;;;-145.19;100.00;59999.88;5030999;28;20421;-69
2021/04/19 03:58:27;;;;;;;44.67;30.17;;;;;;;-145.19;100.00;59999.88;5032170;28;20037;-68
2021/04/19 04:00:56;;;;;;;44.20;29.80;;;;;;;-145.19;100.00;59999.88;5023169;28;20587;-69
2021/04/19 04:03:43;;;;;;;48.45;29.63;;;;;;;-145.19;100.00;59999.88;5023101;28;20065;-68
2021/04/19 04:06:28;;;;;;;45.00;30.63;;;;;;;-145.19;100.00;59999.88;5030428;28;20085;-68
2021/04/19 04:08:58;;;;;;;45.15;30.48;;;;;;;-145.19;100.00;59999.88;5030969;28;20060;-68
2021/04/19 04:11:26;;;;;;;45.45;31.25;;;;;;;-145.19;100.00;59999.88;5034162;28;20076;-68
2021/04/19 04:14:03;;;;;;;45.87;31.50;;;;;;;-145.19;100.00;59999.88;5044172;28;20046;-68
2021/04/19 04:16:30;;;;;;;46.15;30.92;;;;;;;-145.19;100.00;59999.88;5028956;28;20290;-68
2021/04/19 04:19:02;;;;;;;47.10;31.13;;;;;;;-145.19;100.00;59999.88;5028927;28;20045;-68
2021/04/19 04:21:34;;;;;;;48.85;31.80;;;;;;;-145.19;100.00;59999.88;5027750;28;20049;-68
2021/04/19 04:24:08;;;;;;;43.10;29.75;;;;;;;-145.19;100.00;59999.88;5044219;28;20054;-68
2021/04/19 04:26:34;;;;;;;47.42;31.35;;;;;;;-145.19;100.00;59999.88;5030532;28;20057;-68
2021/04/19 04:29:02;;;;;;;43.75;29.75;;;;;;;-145.19;100.00;59999.88;5029290;28;20046;-67
2021/04/19 04:31:35;;;;;;;47.53;31.30;;;;;;;-145.19;100.00;59999.88;5023154;28;20136;-69
2021/04/19 04:34:08;;;;;;;46.53;30.13;;;;;;;-145.19;100.00;59999.88;5028393;28;20056;-71
2021/04/19 04:36:36;;;;;;;46.65;30.90;;;;;;;-145.19;100.00;59999.88;5028294;28;20434;-68
2021/04/19 04:39:08;;;;;;;47.65;29.95;;;;;;;-145.19;100.00;59999.88;5028155;28;20061;-69
2021/04/19 04:41:46;;;;;;;44.40;30.67;;;;;;;-145.19;100.00;59999.88;5028327;28;20085;-68
2021/04/19 04:44:17;;;;;;;45.70;30.65;;;;;;;-145.19;100.00;59999.88;5030754;28;20340;-68
2021/04/19 04:47:06;;;;;;;43.30;29.42;;;;;;;-145.19;100.00;59999.88;5028215;28;20132;-66
2021/04/19 04:49:39;;;;;;;44.08;30.15;;;;;;;-145.19;100.00;59999.88;5031876;28;20091;-68
2021/04/19 04:52:05;;;;;;;42.35;28.73;;;;;;;-145.19;100.00;59999.88;5030467;28;20044;-67
2021/04/19 04:54:36;;;;;;;43.47;30.17;;;;;;;-145.19;100.00;59999.88;5029213;28;20060;-69
2021/04/19 04:57:04;;;;;;;42.50;29.45;;;;;;;-145.19;100.00;59999.88;5031063;28;20055;-68
2021/04/19 04:59:31;;;;;;;45.53;30.20;;;;;;;-145.19;100.00;59999.88;5027951;28;20064;-69
2021/04/19 05:01:58;;;;;;;45.55;29.90;;;;;;;-145.19;100.00;59999.88;5029835;28;20099;-68
2021/04/19 05:04:28;;;;;;;43.83;29.58;;;;;;;-145.19;100.00;59999.88;5028228;28;20732;-68
2021/04/19 05:06:54;;;;;;;43.38;29.98;;;;;;;-145.19;100.00;59999.88;5029413;28;20049;-69
2021/04/19 05:09:20;;;;;;;43.90;29.63;;;;;;;-145.19;100.00;59999.88;5032182;28;20042;-70
2021/04/19 05:11:47;;;;;;;42.05;29.13;;;;;;;-145.19;100.00;59999.88;5030915;28;20125;-68
2021/04/19 05:14:14;;;;;;;42.60;29.88;;;;;;;-145.19;100.00;59999.88;5028039;28;20048;-68
2021/04/19 05:16:40;;;;;;;45.95;31.38;;;;;;;-145.19;100.00;59999.88;5028254;28;20045;-68
2021/04/19 05:19:07;;;;;;;45.70;29.13;;;;;;;-145.19;100.00;59999.88;5028441;28;20048;-67
2021/04/19 05:21:35;;;;;;;42.83;28.80;;;;;;;-145.19;100.00;59999.88;5026599;28;20661;-67
2021/04/19 05:24:02;;;;;;;46.03;31.05;;;;;;;-145.19;100.00;59999.88;5028435;28;20565;-67
2021/04/19 05:26:28;;;;;;;45.25;29.90;;;;;;;-145.19;100.00;59999.88;5027942;28;20057;-68
2021/04/19 05:28:55;;;;;;;45.25;30.00;;;;;;;-145.19;100.00;59999.88;5027360;28;20049;-67
2021/04/19 05:31:21;;;;;;;42.05;29.83;;;;;;;-145.19;100.00;59999.88;5027134;28;20041;-66
2021/04/19 05:33:53;;;;;;;42.20;30.02;;;;;;;-145.19;100.00;59999.88;5025888;28;20064;-67
2021/04/19 05:36:19;;;;;;;40.30;28.55;;;;;;;-145.19;100.00;59999.88;5029136;28;20097;-66
2021/04/19 05:38:45;;;;;;;42.08;28.50;;;;;;;-145.19;100.00;59999.88;5028402;28;20044;-67
2021/04/19 05:41:13;;;;;;;41.72;27.75;;;;;;;-145.19;100.00;59999.88;5033274;28;20041;-70
2021/04/19 05:43:41;;;;;;;42.95;30.70;;;;;;;-145.19;100.00;59999.88;5033505;28;20038;-69
2021/04/19 05:46:07;;;;;;;41.50;28.98;;;;;;;-145.19;100.00;59999.88;5018261;28;20042;-69
2021/04/19 05:48:34;;;;;;;39.17;26.57;;;;;;;-145.19;100.00;59999.88;5032573;28;20069;-68
2021/04/19 05:51:06;;;;;;;41.75;27.83;;;;;;;-145.19;100.00;59999.88;5047008;28;20493;-67
2021/04/19 05:53:32;;;;;;;42.88;26.83;;;;;;;-145.19;100.00;59999.88;5031141;28;20041;-68
2021/04/19 05:56:04;;;;;;;41.47;27.02;;;;;;;-145.19;100.00;59999.88;5031728;28;20060;-68
2021/04/19 05:58:47;;;;;;;40.40;27.50;;;;;;;-145.19;100.00;59999.88;5032409;28;20076;-68
2021/04/19 06:01:19;;;;;;;43.22;27.95;;;;;;;-145.19;100.00;59999.88;5033833;28;20416;-68
2021/04/19 06:04:15;;;;;;;39.63;26.95;;;;;;;-145.19;100.00;59999.88;5030658;28;20133;-68
2021/04/19 06:06:48;;;;;;;39.92;28.05;;;;;;;-145.19;100.00;59999.88;5031964;28;20408;-68
2021/04/19 06:09:28;;;;;;;39.92;27.48;;;;;;;-145.19;100.00;59999.88;5046682;28;20465;-69
2021/04/19 06:12:19;;;;;;;40.47;27.60;;;;;;;-145.19;100.00;59999.88;5033049;28;20091;-69
2021/04/19 06:14:50;;;;;;;39.20;27.38;;;;;;;-145.19;100.00;59999.88;5030740;28;20063;-68
2021/04/19 06:17:18;;;;;;;42.55;28.80;;;;;;;-145.19;100.00;59999.88;5030179;28;20045;-68
2021/04/19 06:19:45;;;;;;;39.42;27.73;;;;;;;-145.19;100.00;59999.88;5032832;28;20045;-68
2021/04/19 06:22:16;;;;;;;40.28;28.30;;;;;;;-145.19;100.00;59999.88;5029440;28;20708;-69
2021/04/19 06:24:47;;;;;;;37.88;26.77;;;;;;;-145.19;100.00;59999.88;5034047;28;20045;-69
2021/04/19 06:27:24;;;;;;;36.33;25.90;;;;;;;-145.19;100.00;59999.88;5032382;28;20069;-69
2021/04/19 06:29:52;;;;;;;40.67;29.08;;;;;;;-145.19;100.00;59999.88;5035373;28;20133;-69
2021/04/19 06:32:22;;;;;;;39.20;28.88;;;;;;;-145.19;100.00;59999.88;5033164;28;20041;-69
2021/04/19 06:34:49;;;;;;;37.63;28.23;;;;;;;-145.19;100.00;59999.88;5032535;28;20053;-69
2021/04/19 06:37:18;;;;;;;39.47;27.90;;;;;;;-145.19;100.00;59999.88;5033620;28;20469;-69
2021/04/19 06:39:44;;;;;;;37.50;26.38;;;;;;;-145.19;100.00;59999.88;5030766;28;20056;-68
2021/04/19 06:42:12;;;;;;;36.88;26.23;;;;;;;-145.19;100.00;59999.88;5027801;28;20064;-69
2021/04/19 06:44:38;;;;;;;37.03;27.25;;;;;;;-145.19;100.00;59999.88;5028615;28;20061;-68
2021/04/19 06:47:07;;;;;;;33.93;26.27;;;;;;;-145.19;100.00;59999.88;5026266;28;20064;-67
2021/04/19 06:49:35;;;;;;;36.28;24.50;;;;;;;-145.19;100.00;59999.88;5029416;28;20049;-69
2021/04/19 06:52:02;;;;;;;34.42;24.85;;;;;;;-145.19;100.00;59999.88;5032075;28;20045;-69
2021/04/19 06:54:28;;;;;;;33.63;24.88;;;;;;;-145.19;100.00;59999.88;5028260;28;20127;-68
2021/04/19 06:56:57;;;;;;;36.60;26.77;;;;;;;-145.19;100.00;59999.88;5030339;28;20072;-68
2021/04/19 06:59:24;;;;;;;36.60;26.52;;;;;;;-145.19;100.00;59999.88;5024660;28;20437;-68
2021/04/19 07:01:53;;;;;;;32.65;25.60;;;;;;;-145.19;100.00;59999.88;5031289;28;20102;-68
2021/04/19 07:04:23;;;;;;;29.17;23.50;;;;;;;-145.19;100.00;59999.88;5026690;28;20474;-68
2021/04/19 07:06:50;;;;;;;34.55;24.73;;;;;;;-145.19;100.00;59999.88;5028384;28;20088;-68
2021/04/19 07:09:23;;;;;;;33.03;23.60;;;;;;;-145.19;100.00;59999.88;5029131;28;20116;-67
2021/04/19 07:12:03;;;;;;;30.85;22.30;;;;;;;-145.19;100.00;59999.88;5033249;28;20056;-71
2021/04/19 07:14:31;;;;;;;31.73;23.58;;;;;;;-145.19;100.00;59999.88;5030953;28;20053;-68
2021/04/19 07:16:58;;;;;;;33.30;24.15;;;;;;;-145.19;100.00;59999.88;5043729;28;20037;-70
2021/04/19 07:19:25;;;;;;;30.42;22.83;;;;;;;-145.19;100.00;59999.88;5037444;28;20120;-71
2021/04/19 07:21:53;;;;;;;33.65;23.45;;;;;;;-145.19;100.00;59999.88;5031960;28;20037;-68
2021/04/19 07:24:19;;;;;;;35.58;22.65;;;;;;;-145.19;100.00;59999.88;5027599;28;20574;-70
2021/04/19 07:26:48;;;;;;;28.50;22.20;;;;;;;-145.19;100.00;59999.88;5030536;28;20409;-68
2021/04/19 07:29:15;;;;;;;26.88;21.33;;;;;;;-145.19;100.00;59999.88;5030121;28;20046;-70
2021/04/19 07:31:46;;;;;;;30.35;22.77;;;;;;;-145.19;100.00;59999.88;5031492;28;20048;-70
2021/04/19 07:34:21;;;;;;;29.50;21.92;;;;;;;-145.19;100.00;59999.88;5029065;28;20132;-68
2021/04/19 07:36:53;;;;;;;29.35;22.35;;;;;;;-145.19;100.00;59999.88;5025366;28;20042;-69
2021/04/19 07:39:21;;;;;;;28.30;22.05;;;;;;;-145.19;100.00;59999.88;5031232;28;20045;-69
2021/04/19 07:41:50;;;;;;;32.42;23.55;;;;;;;-145.19;100.00;59999.88;5029796;28;20049;-69
2021/04/19 07:44:38;;;;;;;28.52;21.20;;;;;;;-145.19;100.00;59999.88;5030665;28;20083;-69
2021/04/19 07:47:29;;;;;;;32.95;22.83;;;;;;;-145.19;100.00;59999.88;5028064;28;20402;-69
2021/04/19 07:50:20;;;;;;;29.65;23.05;;;;;;;-145.19;100.00;59999.88;5030399;28;20056;-69
2021/04/19 07:53:02;;;;;;;29.13;22.00;;;;;;;-145.19;100.00;59999.88;5030119;28;20068;-69
2021/04/19 07:55:33;;;;;;;31.00;21.92;;;;;;;-145.19;100.00;59999.88;5025582;28;20059;-69
2021/04/19 07:58:07;;;;;;;26.98;21.02;;;;;;;-145.19;100.00;59999.88;5026158;28;20065;-69
2021/04/19 08:00:37;;;;;;;29.40;20.33;;;;;;;-145.19;100.00;59999.88;5030100;28;20578;-68
2021/04/19 08:03:09;;;;;;;30.58;22.20;;;;;;;-145.19;100.00;59999.88;5027284;28;20166;-68
2021/04/19 08:05:35;;;;;;;27.85;22.42;;;;;;;-145.19;100.00;59999.88;5028412;28;20115;-68
2021/04/19 08:08:03;;;;;;;35.33;22.75;;;;;;;-145.19;100.00;59999.88;5028680;28;20053;-68
2021/04/19 08:10:31;;;;;;;39.60;27.55;;;;;;;-145.19;100.00;59999.88;5024775;28;20347;-69
2021/04/19 08:13:08;;;;;;;29.65;22.65;;;;;;;-145.19;100.00;59999.88;5027298;28;20126;-70
2021/04/19 08:15:37;;;;;;;41.95;28.92;;;;;;;-145.19;100.00;59999.88;5025919;28;20053;-69
2021/04/19 08:18:15;;;;;;;30.75;23.77;;;;;;;-145.19;100.00;59999.88;5027763;28;20060;-69
2021/04/19 08:20:58;;;;;;;27.13;20.90;;;;;;;-145.19;100.00;59999.88;5030012;28;20053;-69
2021/04/19 08:23:24;;;;;;;30.65;22.90;;;;;;;-145.19;100.00;59999.88;5030890;28;20045;-69
2021/04/19 08:25:52;;;;;;;28.70;22.30;;;;;;;-145.19;100.00;59999.88;5031110;28;20468;-69
2021/04/19 08:28:21;;;;;;;26.83;21.00;;;;;;;-145.19;100.00;59999.88;5034111;28;20516;-69
2021/04/19 08:30:49;;;;;;;24.83;19.70;;;;;;;-145.19;100.00;59999.88;5045944;28;20790;-69
2021/04/19 08:33:17;;;;;;;27.52;21.27;;;;;;;-145.19;100.00;59999.88;5030320;28;20052;-70
2021/04/19 08:35:45;;;;;;;28.23;20.38;;;;;;;-145.19;100.00;59999.88;5031792;28;20096;-67
2021/04/19 08:38:12;;;;;;;;;;;;;;;-145.19;100.00;59999.88;5030622;28;20055;-67
2021/04/19 08:40:40;;;;;;;31.88;21.77;;;;;;;-145.19;100.00;59999.88;5032066;28;19920;-68
2021/04/19 08:43:21;;;;;;;26.95;20.13;;;;;;;-145.19;100.00;59999.88;5030326;28;20552;-67
2021/04/19 08:45:47;;;;;;;30.42;20.98;;;;;;;-145.19;100.00;59999.88;5029553;28;20128;-67
2021/04/19 08:48:14;;;;;;;29.15;20.50;;;;;;;-145.19;100.00;59999.88;5028262;28;20155;-68
2021/04/19 08:50:44;;;;;;;29.02;21.33;;;;;;;-145.19;100.00;59999.88;5026477;28;20033;-67
2021/04/19 08:53:13;;;;;;;27.90;19.73;;;;;;;-145.19;100.00;59999.88;5033004;28;20140;-67
2021/04/19 08:55:41;;;;;;;29.08;20.02;;;;;;;-145.19;100.00;59999.88;5031248;28;20039;-67
2021/04/19 08:58:13;;;;;;;26.70;19.98;;;;;;;-145.19;100.00;59999.88;5046755;28;20448;-67
2021/04/19 09:00:41;;;;;;;27.42;19.92;;;;;;;-145.19;100.00;59999.88;5028890;28;20073;-67
2021/04/19 09:03:08;;;;;;;31.08;21.30;;;;;;;-145.19;100.00;59999.88;5031792;28;20128;-67
2021/04/19 09:05:36;;;;;;;26.92;19.30;;;;;;;-145.19;100.00;59999.88;5031767;28;20045;-67
2021/04/19 09:08:15;;;;;;;27.92;21.17;;;;;;;-145.19;100.00;59999.88;5022818;28;20056;-67
2021/04/19 09:11:01;;;;;;;28.30;19.77;;;;;;;-145.19;100.00;59999.88;5029656;28;20046;-68
2021/04/19 09:13:42;;;;;;;28.77;20.65;;;;;;;-145.19;100.00;59999.88;5031221;28;20577;-68
2021/04/19 09:16:19;;;;;;;27.00;20.17;;;;;;;-145.19;100.00;59999.88;5027821;28;20059;-67
2021/04/19 09:18:54;;;;;;;27.70;19.30;;;;;;;-145.19;100.00;59999.88;5025714;28;20134;-68
2021/04/19 09:21:33;;;;;;;26.42;18.50;;;;;;;-145.19;100.00;59999.88;5032025;28;20053;-68
2021/04/19 09:23:59;;;;;;;26.60;19.63;;;;;;;-145.19;100.00;59999.88;5033069;28;20385;-68
2021/04/19 09:26:54;;;;;;;23.80;18.40;;;;;;;-145.19;100.00;59999.88;5029660;28;20056;-68
2021/04/19 09:29:27;;;;;;;24.15;18.15;;;;;;;-145.19;100.00;59999.88;5028754;28;20040;-68
2021/04/19 09:32:07;;;;;;;23.80;17.73;;;;;;;-145.19;100.00;59999.88;5030102;28;20055;-68
2021/04/19 09:34:46;;;;;;;22.40;18.08;;;;;;;-145.19;100.00;59999.88;5027573;28;20493;-68
2021/04/19 09:37:15;;;;;;;21.90;18.30;;;;;;;-145.19;100.00;59999.88;5028326;28;20068;-68
2021/04/19 09:39:46;;;;;;;25.60;19.08;;;;;;;-145.19;100.00;59999.88;5027534;28;20268;-68
2021/04/19 09:42:16;;;;;;;24.20;17.33;;;;;;;-145.19;100.00;59999.88;5026565;28;20049;-69
2021/04/19 09:44:54;;;;;;;23.25;17.27;;;;;;;-145.19;100.00;59999.88;5026067;28;20524;-68
2021/04/19 09:47:47;;;;;;;38.80;18.70;;;;;;;-145.19;100.00;59999.88;5026028;28;20095;-68
2021/04/19 09:50:15;;;;;;;21.65;16.63;;;;;;;-145.19;100.00;59999.88;5023573;28;20053;-68
2021/04/19 09:52:46;;;;;;;22.30;17.67;;;;;;;-145.19;100.00;59999.88;5026670;28;20041;-68
2021/04/19 09:55:13;;;;;;;19.95;15.85;;;;;;;-145.19;100.00;59999.88;5027272;28;20041;-68
2021/04/19 09:57:39;;;;;;;14.93;12.00;;;;;;;-145.19;100.00;59999.88;5025928;28;20045;-68
2021/04/19 10:00:06;;;;;;;14.67;12.03;;;;;;;-145.19;100.00;59999.88;5027534;28;20045;-64
2021/04/19 10:02:35;;;;;;;22.40;17.55;;;;;;;-145.19;100.00;59999.88;5022266;28;20115;-63
2021/04/19 10:05:05;;;;;;;21.23;16.40;;;;;;;-145.19;100.00;59999.88;5022742;28;20622;-63
2021/04/19 10:07:32;;;;;;;17.02;13.60;;;;;;;-145.19;100.00;59999.88;5025540;28;20056;-63
2021/04/19 10:10:02;;;;;;;22.80;15.50;;;;;;;-145.19;100.00;59999.88;5025873;28;20079;-63
2021/04/19 10:12:33;;;;;;;20.63;16.15;;;;;;;-145.19;100.00;59999.88;5026341;28;20053;-67
2021/04/19 10:14:59;;;;;;;21.05;16.40;;;;;;;-145.19;100.00;59999.88;5030097;28;20038;-69
2021/04/19 10:17:29;;;;;;;21.05;16.70;;;;;;;-145.19;100.00;59999.88;5028414;28;20151;-69
2021/04/19 10:19:55;;;;;;;17.52;14.40;;;;;;;-145.19;100.00;59999.88;5043649;28;20088;-68
2021/04/19 10:22:21;;;;;;;17.13;14.27;;;;;;;-145.19;100.00;59999.88;5027545;28;20393;-68
2021/04/19 10:24:53;;;;;;;17.10;14.25;;;;;;;-145.19;100.00;59999.88;5028831;28;20053;-68
2021/04/19 10:27:28;;;;;;;19.20;14.50;;;;;;;-145.19;100.00;59999.88;5029161;28;20136;-68
2021/04/19 10:30:06;;;;;;;17.55;14.77;;;;;;;-145.19;100.00;59999.88;5032621;28;20042;-66
2021/04/19 10:32:32;;;;;;;19.90;16.10;;;;;;;-145.19;100.00;59999.88;5028157;28;20124;-67
2021/04/19 10:34:59;;;;;;;21.48;16.40;;;;;;;-145.19;100.00;59999.88;5030934;28;20121;-68
2021/04/19 10:37:26;;;;;;;20.48;16.80;;;;;;;-145.19;100.00;59999.88;5031562;28;20049;-66
2021/04/19 10:39:52;;;;;;;21.80;17.13;;;;;;;-145.19;100.00;59999.88;5029152;28;20084;-68
2021/04/19 10:42:31;;;;;;;22.50;17.25;;;;;;;-145.19;100.00;59999.88;5028685;28;20041;-68
2021/04/19 10:45:08;;;;;;;20.17;15.63;;;;;;;-145.19;100.00;59999.88;5028301;28;20072;-68
2021/04/19 10:47:34;;;;;;;22.27;16.30;;;;;;;-145.19;100.00;59999.88;5030908;28;20045;-67
2021/04/19 10:50:00;;;;;;;22.10;15.88;;;;;;;-145.19;100.00;59999.88;5029478;28;20156;-68
2021/04/19 10:52:26;;;;;;;20.40;15.90;;;;;;;-145.19;100.00;59999.88;5030711;28;20813;-68
2021/04/19 10:54:54;;;;;;;22.98;16.45;;;;;;;-145.19;100.00;59999.88;5031550;28;20132;-69
2021/04/19 10:57:26;;;;;;;20.08;14.73;;;;;;;-145.19;100.00;59999.88;5027927;28;20050;-61
2021/04/19 10:59:53;;;;;;;20.42;14.65;;;;;;;-145.19;100.00;59999.88;5029532;28;20051;-61
2021/04/19 11:02:29;;;;;;;23.40;16.98;;;;;;;-145.19;100.00;59999.88;5028970;28;20382;-60
2021/04/19 11:04:57;;;;;;;26.33;17.75;;;;;;;-145.19;100.00;59999.88;5029227;28;20351;-68
2021/04/19 11:07:24;;;;;;;;;;;;;;;-145.19;100.00;59999.88;5031837;28;20539;-69
2021/04/19 11:10:27;;;;;;;30.23;17.77;;;;;;;-145.19;100.00;59999.88;5024041;28;19925;-68
2021/04/19 11:12:57;;;;;;;25.73;18.08;;;;;;;-145.19;100.00;59999.88;5028379;28;20113;-69